createdAt,value
2023-05-24T00:02:14.297Z,12.86
2023-05-24T00:04:43.020Z,12.90
2023-05-24T00:07:12.732Z,12.88
2023-05-24T00:09:41.018Z,12.85
2023-05-24T00:12:09.788Z,12.83
2023-05-24T00:14:38.416Z,12.83
2023-05-24T00:17:06.928Z,12.85
2023-05-24T00:19:38.512Z,12.90
2023-05-24T00:22:06.931Z,12.93
2023-05-24T00:24:35.329Z,12.89
2023-05-24T00:27:03.689Z,12.96
2023-05-24T00:29:32.426Z,13.01
2023-05-24T00:32:00.868Z,12.97
2023-05-24T00:34:31.262Z,13.00
2023-05-24T00:37:01.008Z,13.02
2023-05-24T00:39:29.277Z,13.02
2023-05-24T00:41:57.592Z,13.01
2023-05-24T00:44:25.909Z,13.00
2023-05-24T00:46:54.315Z,12.92
2023-05-24T00:49:24.399Z,12.81
2023-05-24T00:51:54.128Z,12.83
2023-05-24T00:54:26.392Z,12.87
2023-05-24T00:56:56.204Z,12.96
2023-05-24T00:59:25.353Z,12.94
2023-05-24T01:01:55.698Z,12.99
2023-05-24T01:04:24.319Z,12.99
2023-05-24T01:07:04.355Z,13.03
2023-05-24T01:09:42.671Z,12.98
2023-05-24T01:12:21.363Z,12.96
2023-05-24T01:14:59.811Z,12.94
2023-05-24T01:17:34.293Z,12.89
2023-05-24T01:20:08.968Z,12.89
2023-05-24T01:23:13.727Z,12.87
2023-05-24T01:26:07.446Z,12.82
2023-05-24T01:28:37.818Z,12.71
2023-05-24T01:31:07.012Z,12.71
2023-05-24T01:33:35.519Z,12.82
2023-05-24T01:36:03.872Z,12.83
2023-05-24T01:38:32.191Z,12.75
2023-05-24T01:41:07.038Z,12.66
2023-05-24T01:43:42.238Z,12.57
2023-05-24T01:46:19.511Z,12.55
2023-05-24T01:48:56.731Z,12.54
2023-05-24T01:51:27.831Z,12.58
2023-05-24T01:53:59.799Z,12.66
2023-05-24T01:56:32.211Z,12.70
2023-05-24T01:59:03.878Z,12.68
2023-05-24T02:01:33.379Z,12.65
2023-05-24T02:04:01.833Z,12.63
2023-05-24T02:06:30.211Z,12.55
2023-05-24T02:08:58.719Z,12.55
2023-05-24T02:11:27.789Z,12.57
2023-05-24T02:13:56.065Z,12.59
2023-05-24T02:16:27.080Z,12.61
2023-05-24T02:18:55.659Z,12.72
2023-05-24T02:21:24.498Z,12.76
2023-05-24T02:23:52.825Z,12.72
2023-05-24T02:26:21.268Z,12.80
2023-05-24T02:28:49.596Z,12.78
2023-05-24T02:31:18.627Z,12.83
2023-05-24T02:33:48.485Z,12.86
2023-05-24T02:36:16.882Z,12.92
2023-05-24T02:38:45.411Z,12.93
2023-05-24T02:41:17.990Z,12.99
2023-05-24T02:43:46.327Z,13.01
2023-05-24T02:46:15.049Z,12.99
2023-05-24T02:48:43.389Z,12.86
2023-05-24T02:51:13.238Z,12.94
2023-05-24T02:53:43.621Z,13.06
2023-05-24T02:56:13.902Z,13.13
2023-05-24T02:58:42.275Z,13.15
2023-05-24T03:01:10.589Z,13.17
2023-05-24T03:03:38.997Z,13.10
2023-05-24T03:06:08.368Z,13.18
2023-05-24T03:08:38.208Z,13.26
2023-05-24T03:11:06.810Z,13.36
2023-05-24T03:13:35.135Z,13.44
2023-05-24T03:16:03.518Z,13.47
2023-05-24T03:18:31.975Z,13.51
2023-05-24T03:21:00.296Z,13.48
2023-05-24T03:23:28.644Z,13.51
2023-05-24T03:25:58.514Z,13.57
2023-05-24T03:28:27.642Z,13.67
2023-05-24T03:30:55.997Z,13.79
2023-05-24T03:33:24.287Z,13.86
2023-05-24T03:35:52.694Z,13.92
2023-05-24T03:38:20.972Z,13.98
2023-05-24T03:40:49.205Z,14.09
2023-05-24T03:43:20.428Z,14.08
2023-05-24T03:45:48.957Z,14.11
2023-05-24T03:48:17.280Z,14.17
2023-05-24T03:50:45.696Z,14.30
2023-05-24T03:53:14.375Z,14.46
2023-05-24T03:55:42.774Z,14.43
2023-05-24T03:58:12.734Z,14.49
2023-05-24T04:00:42.822Z,14.53
2023-05-24T04:03:12.339Z,14.54
2023-05-24T04:05:40.832Z,14.58
2023-05-24T04:08:09.211Z,14.65
2023-05-24T04:10:37.667Z,14.70
2023-05-24T04:13:05.931Z,14.66
2023-05-24T04:15:34.255Z,14.72
2023-05-24T04:18:03.972Z,14.84
2023-05-24T04:20:32.655Z,14.97
2023-05-24T04:23:01.067Z,14.96
2023-05-24T04:25:29.755Z,14.94
2023-05-24T04:27:58.408Z,14.84
2023-05-24T04:30:30.217Z,14.95
2023-05-24T04:32:58.567Z,15.15
2023-05-24T04:35:28.425Z,15.25
2023-05-24T04:37:57.751Z,15.52
2023-05-24T04:40:26.268Z,15.66
2023-05-24T04:42:54.509Z,16.06
2023-05-24T04:45:23.008Z,16.75
2023-05-24T04:47:51.314Z,17.63
2023-05-24T04:50:19.839Z,17.29
2023-05-24T04:52:49.783Z,17.15
2023-05-24T04:55:18.119Z,17.94
2023-05-24T04:57:46.423Z,18.52
2023-05-24T05:00:15.664Z,18.54
2023-05-24T05:02:44.140Z,19.25
2023-05-24T05:05:12.788Z,19.73
2023-05-24T05:07:41.103Z,20.80
2023-05-24T05:10:11.194Z,21.47
2023-05-24T05:12:40.059Z,22.30
2023-05-24T05:15:10.095Z,23.88
2023-05-24T05:17:38.609Z,24.77
2023-05-24T05:20:08.268Z,24.89
2023-05-24T05:22:36.739Z,24.38
2023-05-24T05:25:05.366Z,26.53
2023-05-24T05:27:35.139Z,27.14
2023-05-24T05:30:03.626Z,27.36
2023-05-24T05:32:32.009Z,27.06
2023-05-24T05:35:00.496Z,27.16
2023-05-24T05:37:29.983Z,29.07
2023-05-24T05:39:58.452Z,30.35
2023-05-24T05:42:26.806Z,31.07
2023-05-24T05:44:56.672Z,31.10
2023-05-24T05:47:25.004Z,31.11
2023-05-24T05:49:53.310Z,31.63
2023-05-24T05:52:21.776Z,31.02
2023-05-24T05:54:50.065Z,30.52
2023-05-24T05:57:24.258Z,29.95
2023-05-24T05:59:52.849Z,30.97
2023-05-24T06:02:23.167Z,31.56
2023-05-24T06:04:51.985Z,31.51
2023-05-24T06:07:20.347Z,28.52
2023-05-24T06:09:48.683Z,27.80
2023-05-24T06:12:18.384Z,27.46
2023-05-24T06:14:48.403Z,29.91
2023-05-24T06:17:16.844Z,30.05
2023-05-24T06:19:47.012Z,30.41
2023-05-24T06:22:15.256Z,30.09
2023-05-24T06:24:43.933Z,29.14
2023-05-24T06:27:12.374Z,26.75
2023-05-24T06:29:41.070Z,25.97
2023-05-24T06:32:09.468Z,25.81
2023-05-24T06:34:44.463Z,25.26
2023-05-24T06:37:15.902Z,26.63
2023-05-24T06:39:44.212Z,27.94
2023-05-24T06:42:12.504Z,27.95
2023-05-24T06:44:40.926Z,27.81
2023-05-24T06:47:09.586Z,29.85
2023-05-24T06:49:38.252Z,31.05
2023-05-24T06:52:08.507Z,28.60
2023-05-24T06:54:38.241Z,28.28
2023-05-24T06:57:06.890Z,29.49
2023-05-24T06:59:36.281Z,27.01
2023-05-24T07:02:04.975Z,28.12
2023-05-24T07:04:33.690Z,27.96
2023-05-24T07:07:03.140Z,28.46
2023-05-24T07:09:31.775Z,27.72
2023-05-24T07:12:02.684Z,26.36
2023-05-24T07:14:30.971Z,27.24
2023-05-24T07:17:00.076Z,27.98
2023-05-24T07:19:29.805Z,28.42
2023-05-24T07:21:58.592Z,29.09
2023-05-24T07:24:26.889Z,27.38
2023-05-24T07:26:56.912Z,28.00
2023-05-24T07:29:27.168Z,28.41
2023-05-24T07:31:58.178Z,28.82
2023-05-24T07:34:28.111Z,27.31
2023-05-24T07:36:56.864Z,27.67
2023-05-24T07:39:25.388Z,28.14
2023-05-24T07:41:53.845Z,27.77
2023-05-24T07:44:22.400Z,28.63
2023-05-24T07:46:52.269Z,28.08
2023-05-24T07:49:20.779Z,27.20
2023-05-24T07:51:49.394Z,26.30
2023-05-24T07:54:17.819Z,26.17
2023-05-24T07:56:46.159Z,25.96
2023-05-24T07:59:14.444Z,25.87
2023-05-24T08:01:42.916Z,25.74
2023-05-24T08:04:12.609Z,25.35
2023-05-24T08:06:41.051Z,22.82
2023-05-24T08:09:10.307Z,23.06
2023-05-24T08:11:38.775Z,22.84
2023-05-24T08:14:07.112Z,23.06
2023-05-24T08:16:35.474Z,21.87
2023-05-24T08:19:03.816Z,20.76
2023-05-24T08:21:33.963Z,20.81
2023-05-24T08:24:02.287Z,21.09
2023-05-24T08:26:30.620Z,20.74
2023-05-24T08:28:59.190Z,20.97
2023-05-24T08:31:27.627Z,20.98
2023-05-24T08:33:57.805Z,20.74
2023-05-24T08:36:26.869Z,20.87
2023-05-24T08:38:56.653Z,20.95
2023-05-24T08:41:24.941Z,20.93
2023-05-24T08:43:54.519Z,21.01
2023-05-24T08:46:23.611Z,21.25
2023-05-24T08:48:53.636Z,21.23
2023-05-24T08:51:22.079Z,21.50
2023-05-24T08:53:53.145Z,20.77
2023-05-24T08:56:24.232Z,21.00
2023-05-24T08:58:52.841Z,20.55
2023-05-24T09:01:21.719Z,20.79
2023-05-24T09:03:51.867Z,20.27
2023-05-24T09:06:20.982Z,20.52
2023-05-24T09:08:52.536Z,20.99
2023-05-24T09:11:23.009Z,20.71
2023-05-24T09:13:52.040Z,20.40
2023-05-24T09:16:20.515Z,19.87
2023-05-24T09:18:49.036Z,20.01
2023-05-24T09:21:17.826Z,19.82
2023-05-24T09:23:46.753Z,20.28
2023-05-24T09:26:15.082Z,19.99
2023-05-24T09:28:44.816Z,20.77
2023-05-24T09:31:13.989Z,20.56
2023-05-24T09:33:42.397Z,20.61
2023-05-24T09:36:11.887Z,21.06
2023-05-24T09:38:40.210Z,21.22
2023-05-24T09:41:11.062Z,21.19
2023-05-24T09:43:51.017Z,21.15
2023-05-24T09:46:20.130Z,21.10
2023-05-24T09:48:58.965Z,20.80
2023-05-24T09:51:27.891Z,20.73
2023-05-24T09:53:59.135Z,20.79
2023-05-24T09:56:28.197Z,20.34
2023-05-24T09:58:58.149Z,20.70
2023-05-24T10:01:27.058Z,20.09
2023-05-24T10:03:56.321Z,19.67
2023-05-24T10:06:25.221Z,20.38
2023-05-24T10:08:55.938Z,20.51
2023-05-24T10:11:24.261Z,20.67
2023-05-24T10:13:52.697Z,20.59
2023-05-24T10:16:22.595Z,20.76
2023-05-24T10:18:51.833Z,20.43
2023-05-24T10:21:23.497Z,20.35
2023-05-24T10:23:58.755Z,20.23
2023-05-24T10:26:30.944Z,20.29
2023-05-24T10:29:06.051Z,20.38
2023-05-24T10:31:39.315Z,20.70
2023-05-24T10:34:09.355Z,20.95
2023-05-24T10:36:40.687Z,20.57
2023-05-24T10:39:12.533Z,20.46
2023-05-24T10:41:42.226Z,20.62
2023-05-24T10:44:14.567Z,20.35
2023-05-24T10:47:19.694Z,20.33
2023-05-24T10:49:53.227Z,20.40
2023-05-24T10:52:22.128Z,20.35
2023-05-24T10:55:09.855Z,20.50
2023-05-24T10:57:39.479Z,20.59
2023-05-24T11:03:04.351Z,20.05
2023-05-24T11:05:53.212Z,20.18
2023-05-24T11:08:27.650Z,19.99
2023-05-24T11:11:23.430Z,20.05
2023-05-24T11:13:58.413Z,20.21
2023-05-24T11:16:39.494Z,20.04
2023-05-24T11:19:18.527Z,19.52
2023-05-24T11:21:49.731Z,19.28
2023-05-24T11:24:19.242Z,19.70
2023-05-24T11:26:48.225Z,20.08
2023-05-24T11:29:21.164Z,19.97
2023-05-24T11:31:50.821Z,20.24
2023-05-24T11:34:19.368Z,20.23
2023-05-24T11:36:50.276Z,20.13
2023-05-24T11:39:18.765Z,20.18
2023-05-24T11:41:49.004Z,20.14
2023-05-24T11:44:19.418Z,20.17
2023-05-24T11:46:48.368Z,20.23
2023-05-24T11:49:18.580Z,20.32
2023-05-24T11:51:48.380Z,20.23
2023-05-24T11:54:16.727Z,20.27
2023-05-24T11:56:45.083Z,20.22
2023-05-24T11:59:17.784Z,20.27
2023-05-24T12:01:46.426Z,20.25
2023-05-24T12:04:14.977Z,20.25
2023-05-24T12:06:45.063Z,19.90
2023-05-24T12:09:18.769Z,19.85
2023-05-24T12:11:50.227Z,19.82
2023-05-24T12:14:20.161Z,20.00
2023-05-24T12:16:50.256Z,18.71
2023-05-24T12:19:32.424Z,18.56
2023-05-24T12:22:02.752Z,19.25
2023-05-24T12:24:33.383Z,19.36
2023-05-24T12:27:03.656Z,19.35
2023-05-24T12:29:36.746Z,19.43
2023-05-24T12:32:06.719Z,19.52
2023-05-24T12:34:35.188Z,19.09
2023-05-24T12:37:04.359Z,19.23
2023-05-24T12:39:37.990Z,19.27
2023-05-24T12:42:06.679Z,18.35
2023-05-24T12:44:37.761Z,18.90
2023-05-24T12:47:08.986Z,19.20
2023-05-24T12:49:37.861Z,19.23
2023-05-24T12:52:07.140Z,19.15
2023-05-24T12:54:37.132Z,19.32
2023-05-24T12:57:05.851Z,19.51
2023-05-24T12:59:35.513Z,19.82
2023-05-24T13:02:03.991Z,19.59
2023-05-24T13:04:34.023Z,19.60
2023-05-24T13:07:03.383Z,19.63
2023-05-24T13:09:31.843Z,19.62
2023-05-24T13:12:01.819Z,19.65
2023-05-24T13:14:30.165Z,19.51
2023-05-24T13:16:58.621Z,19.44
2023-05-24T13:19:27.103Z,19.53
2023-05-24T13:21:55.672Z,19.46
2023-05-24T13:24:24.422Z,19.41
2023-05-24T13:26:54.829Z,19.38
2023-05-24T13:31:56.606Z,18.72
2023-05-24T13:34:25.961Z,18.93
2023-05-24T13:36:55.347Z,19.11
2023-05-24T13:39:24.041Z,19.35
2023-05-24T13:41:52.395Z,19.06
2023-05-24T13:44:21.515Z,19.33
2023-05-24T13:46:51.337Z,19.48
2023-05-24T13:49:19.792Z,19.57
2023-05-24T13:51:48.215Z,19.58
2023-05-24T13:54:16.835Z,19.65
2023-05-24T13:56:45.446Z,19.68
2023-05-24T13:59:13.717Z,19.55
2023-05-24T14:01:42.273Z,19.41
2023-05-24T14:04:12.189Z,19.32
2023-05-24T14:06:40.538Z,19.36
2023-05-24T14:09:09.189Z,19.50
2023-05-24T14:11:37.672Z,19.47
2023-05-24T14:16:37.600Z,19.39
2023-05-24T14:19:06.422Z,19.42
2023-05-24T14:21:36.529Z,18.91
2023-05-24T14:24:05.158Z,18.87
2023-05-24T14:26:33.497Z,18.94
2023-05-24T14:29:01.793Z,19.28
2023-05-24T14:31:30.174Z,19.17
2023-05-24T14:33:58.778Z,19.02
2023-05-24T14:36:27.121Z,19.11
2023-05-24T14:38:56.849Z,19.10
2023-05-24T14:41:25.159Z,19.03
2023-05-24T14:43:53.659Z,18.41
2023-05-24T14:46:21.961Z,18.24
2023-05-24T14:48:50.322Z,18.65
2023-05-24T14:51:18.797Z,18.74
2023-05-24T14:53:47.141Z,18.32
2023-05-24T14:56:17.239Z,18.52
2023-05-24T14:58:45.757Z,18.55
2023-05-24T15:01:14.263Z,18.39
2023-05-24T15:03:44.263Z,18.28
2023-05-24T15:06:13.684Z,18.46
2023-05-24T15:08:41.965Z,18.49
2023-05-24T15:11:10.218Z,18.45
2023-05-24T15:13:40.062Z,18.29
2023-05-24T15:16:08.754Z,18.38
2023-05-24T15:18:37.034Z,18.40
2023-05-24T15:21:05.419Z,18.36
2023-05-24T15:23:33.788Z,18.53
2023-05-24T15:26:02.277Z,18.41
2023-05-24T15:28:30.820Z,18.37
2023-05-24T15:31:02.081Z,18.32
2023-05-24T15:33:30.721Z,18.34
2023-05-24T15:35:59.191Z,18.12
2023-05-24T15:38:27.531Z,18.26
2023-05-24T15:40:55.826Z,18.16
2023-05-24T15:43:24.539Z,18.26
2023-05-24T15:45:53.722Z,18.38
2023-05-24T15:48:24.084Z,18.36
2023-05-24T15:51:43.001Z,18.32
2023-05-24T15:53:40.802Z,18.05
2023-05-24T15:56:10.335Z,17.79
2023-05-24T15:58:38.731Z,17.52
2023-05-24T16:01:07.483Z,17.73
2023-05-24T16:03:38.265Z,17.58
2023-05-24T16:06:07.102Z,17.68
2023-05-24T16:08:35.493Z,17.51
2023-05-24T16:11:08.334Z,17.18
2023-05-24T16:13:36.796Z,17.09
2023-05-24T16:16:05.232Z,17.02
2023-05-24T16:18:35.490Z,16.85
2023-05-24T16:21:05.523Z,16.77
2023-05-24T16:23:34.120Z,16.69
2023-05-24T16:26:02.449Z,16.78
2023-05-24T16:28:30.812Z,16.81
2023-05-24T16:31:02.945Z,16.89
2023-05-24T16:33:31.380Z,16.76
2023-05-24T16:36:03.428Z,16.58
2023-05-24T16:38:33.920Z,16.55
2023-05-24T16:41:02.266Z,16.63
2023-05-24T16:43:30.735Z,16.53
2023-05-24T16:45:59.182Z,16.48
2023-05-24T16:48:31.547Z,16.44
2023-05-24T16:51:00.185Z,16.49
2023-05-24T16:53:29.051Z,16.46
2023-05-24T16:55:58.958Z,16.45
2023-05-24T16:58:29.019Z,16.41
2023-05-24T17:00:57.486Z,16.34
2023-05-24T17:03:29.237Z,16.33
2023-05-24T17:06:03.556Z,16.25
2023-05-24T17:08:34.376Z,16.23
2023-05-24T17:11:04.730Z,16.20
2023-05-24T17:13:33.468Z,16.15
2023-05-24T17:16:01.875Z,16.18
2023-05-24T17:18:30.261Z,16.12
2023-05-24T17:20:59.164Z,16.00
2023-05-24T17:23:28.399Z,15.98
2023-05-24T17:25:56.775Z,15.99
2023-05-24T17:28:28.404Z,15.98
2023-05-24T17:30:56.737Z,15.86
2023-05-24T17:33:26.827Z,15.93
2023-05-24T17:35:56.672Z,15.94
2023-05-24T17:38:25.882Z,15.99
2023-05-24T17:40:59.507Z,16.01
2023-05-24T17:43:32.623Z,16.01
2023-05-24T17:46:06.568Z,15.95
2023-05-24T17:48:36.915Z,15.88
2023-05-24T17:51:07.072Z,15.85
2023-05-24T17:53:36.113Z,15.85
2023-05-24T17:56:05.348Z,15.85
2023-05-24T17:58:37.364Z,15.82
2023-05-24T18:01:07.500Z,15.74
2023-05-24T18:03:37.720Z,15.67
2023-05-24T18:06:07.542Z,15.67
2023-05-24T18:08:38.527Z,15.67
2023-05-24T18:11:09.627Z,15.57
2023-05-24T18:13:40.224Z,15.48
2023-05-24T18:16:09.824Z,15.34
2023-05-24T18:18:38.947Z,15.35
2023-05-24T18:21:07.759Z,15.32
2023-05-24T18:23:38.142Z,15.29
2023-05-24T18:26:08.567Z,15.26
2023-05-24T18:28:38.220Z,15.21
2023-05-24T18:31:10.534Z,15.23
2023-05-24T18:33:39.325Z,15.17
2023-05-24T18:36:08.454Z,15.12
2023-05-24T18:38:37.708Z,15.08
2023-05-24T18:41:09.469Z,15.03
2023-05-24T18:43:37.855Z,15.03
2023-05-24T18:46:07.688Z,14.97
2023-05-24T18:48:36.085Z,14.90
2023-05-24T18:51:04.671Z,14.86
2023-05-24T18:53:33.056Z,14.85
2023-05-24T18:56:01.580Z,14.86
2023-05-24T18:58:30.024Z,14.82
2023-05-24T19:00:58.632Z,14.84
2023-05-24T19:03:28.570Z,14.84
2023-05-24T19:05:57.030Z,14.80
2023-05-24T19:08:26.148Z,14.81
2023-05-24T19:10:54.556Z,14.84
2023-05-24T19:13:23.121Z,14.88
2023-05-24T19:15:51.461Z,14.84
2023-05-24T19:18:19.794Z,14.81
2023-05-24T19:20:49.975Z,14.82
2023-05-24T19:23:18.392Z,14.80
2023-05-24T19:25:50.239Z,14.80
2023-05-24T19:28:18.821Z,14.77
2023-05-24T19:30:47.123Z,14.70
2023-05-24T19:33:15.547Z,14.71
2023-05-24T19:35:44.281Z,14.76
2023-05-24T19:38:17.980Z,14.71
2023-05-24T19:40:46.356Z,14.73
2023-05-24T19:43:14.636Z,14.76
2023-05-24T19:45:43.065Z,14.74
2023-05-24T19:48:11.569Z,14.76
2023-05-24T19:50:40.776Z,14.76
2023-05-24T19:53:09.176Z,14.77
2023-05-24T19:55:38.939Z,14.75
2023-05-24T19:58:07.281Z,14.73
2023-05-24T20:00:35.832Z,14.73
2023-05-24T20:03:04.261Z,14.62
2023-05-24T20:05:32.600Z,14.67
2023-05-24T20:08:01.317Z,14.70
2023-05-24T20:10:32.063Z,14.77
2023-05-24T20:13:01.890Z,14.80
2023-05-24T20:15:30.561Z,14.83
2023-05-24T20:17:59.437Z,14.91
2023-05-24T20:20:27.885Z,14.91
2023-05-24T20:22:56.270Z,14.88
2023-05-24T20:25:25.113Z,14.86
2023-05-24T20:27:53.363Z,14.79
2023-05-24T20:30:23.174Z,14.73
2023-05-24T20:32:51.580Z,14.68
2023-05-24T20:35:20.720Z,14.66
2023-05-24T20:37:49.080Z,14.66
2023-05-24T20:40:22.802Z,14.92
2023-05-24T20:42:51.145Z,14.97
2023-05-24T20:45:19.937Z,14.98
2023-05-24T20:47:49.907Z,15.05
2023-05-24T20:50:18.554Z,15.01
2023-05-24T20:52:46.964Z,15.00
2023-05-24T20:55:16.455Z,14.97
2023-05-24T20:57:44.980Z,15.04
2023-05-24T21:00:14.324Z,14.97
2023-05-24T21:02:42.751Z,14.91
2023-05-24T21:05:12.735Z,14.86
2023-05-24T21:07:41.332Z,14.84
2023-05-24T21:10:11.239Z,14.73
2023-05-24T21:12:39.548Z,14.58
2023-05-24T21:15:11.904Z,14.57
2023-05-24T21:17:40.417Z,14.49
2023-05-24T21:20:09.479Z,14.45
2023-05-24T21:22:39.404Z,14.45
2023-05-24T21:25:09.093Z,14.46
2023-05-24T21:27:37.502Z,14.43
2023-05-24T21:30:06.419Z,14.48
2023-05-24T21:32:34.695Z,14.45
2023-05-24T21:35:03.031Z,14.45
2023-05-24T21:37:31.390Z,14.43
2023-05-24T21:40:01.042Z,14.35
2023-05-24T21:42:29.369Z,14.34
2023-05-24T21:44:57.826Z,14.29
2023-05-24T21:47:26.264Z,14.23
2023-05-24T21:49:55.185Z,14.26
2023-05-24T21:52:24.721Z,14.30
2023-05-24T21:54:52.989Z,14.35
2023-05-24T21:57:24.883Z,14.39
2023-05-24T21:59:54.439Z,14.41
2023-05-24T22:02:22.814Z,14.41
2023-05-24T22:04:51.291Z,14.42
2023-05-24T22:07:19.689Z,14.34
2023-05-24T22:09:48.049Z,14.21
2023-05-24T22:12:16.286Z,14.16
2023-05-24T22:14:46.288Z,14.06
2023-05-24T22:17:15.018Z,13.97
2023-05-24T22:19:44.130Z,13.96
2023-05-24T22:22:12.603Z,13.93
2023-05-24T22:24:40.960Z,13.75
2023-05-24T22:27:13.995Z,13.72
2023-05-24T22:29:42.372Z,13.67
2023-05-24T22:32:12.249Z,13.65
2023-05-24T22:34:40.824Z,13.65
2023-05-24T22:37:09.259Z,13.61
2023-05-24T22:39:37.652Z,13.55
2023-05-24T22:42:06.454Z,13.58
2023-05-24T22:44:34.962Z,13.63
2023-05-24T22:47:03.502Z,13.67
2023-05-24T22:49:34.297Z,13.60
2023-05-24T22:52:02.736Z,13.54
2023-05-24T22:54:31.021Z,13.59
2023-05-24T22:56:59.314Z,13.62
2023-05-24T22:59:27.773Z,13.68
2023-05-24T23:01:56.289Z,13.67
2023-05-24T23:04:27.727Z,13.55
2023-05-24T23:06:57.882Z,13.51
2023-05-24T23:09:34.207Z,13.49
2023-05-24T23:12:02.953Z,13.43
2023-05-24T23:14:31.584Z,13.39
2023-05-24T23:17:02.665Z,13.35
2023-05-24T23:19:31.329Z,13.43
2023-05-24T23:22:03.510Z,13.45
2023-05-24T23:24:32.045Z,13.55
2023-05-24T23:27:00.941Z,13.57
2023-05-24T23:29:29.241Z,13.50
2023-05-24T23:31:57.556Z,13.46
2023-05-24T23:34:25.933Z,13.51
2023-05-24T23:36:54.541Z,13.47
2023-05-24T23:39:24.254Z,13.52
2023-05-24T23:41:52.497Z,13.58
2023-05-24T23:44:23.617Z,13.40
2023-05-24T23:46:52.087Z,13.23
2023-05-24T23:49:21.123Z,13.17
2023-05-24T23:51:49.406Z,13.16
2023-05-24T23:54:19.172Z,13.15
2023-05-24T23:56:49.173Z,13.22
2023-05-24T23:59:17.718Z,13.28
